Time;durP1;ratioP1;P1;durP2;ratioP2;P2;SDS_P1;SDS_P2;PMS_P1;PMS_P2;Temp;Humidity;BMP_temperature;BMP_pressure;BME280_temperature;BME280_humidity;BME280_pressure;Samples;Min_cycle;Max_cycle;Signal;HPM_P1;HPM_P2
2023/10/13 00:01:17;;;;;;;35.85;33.95;;;;;;;8.64;100.00;101474.66;4972789;28;20127;-79
2023/10/13 00:04:10;;;;;;;35.47;33.63;;;;;;;8.67;100.00;101469.00;4972779;28;20175;-79
2023/10/13 00:07:08;;;;;;;35.13;33.15;;;;;;;8.47;100.00;101471.28;4972276;28;20510;-80
2023/10/13 00:09:37;;;;;;;34.10;32.10;;;;;;;8.53;100.00;101472.41;4973101;28;20532;-76
2023/10/13 00:12:49;;;;;;;34.95;33.05;;;;;;;8.66;100.00;101470.03;4973317;28;20047;-78
2023/10/13 00:15:20;;;;;;;34.55;32.85;;;;;;;8.09;100.00;101475.56;4973080;28;20055;-79
2023/10/13 00:18:32;;;;;;;33.47;31.65;;;;;;;8.54;100.00;101471.41;4973643;28;20090;-79
2023/10/13 00:21:12;;;;;;;32.15;30.45;;;;;;;8.32;100.00;101478.28;4972791;28;20057;-75
2023/10/13 00:23:52;;;;;;;30.45;28.75;;;;;;;8.42;100.00;101472.81;4972547;28;20051;-79
2023/10/13 00:26:23;;;;;;;30.67;28.98;;;;;;;8.43;100.00;101477.09;4968882;28;20058;-76
2023/10/13 00:29:16;;;;;;;30.88;29.08;;;;;;;8.50;100.00;101470.09;4973391;28;20475;-79
2023/10/13 00:31:44;;;;;;;31.33;29.70;;;;;;;8.33;100.00;101479.09;4971178;28;20058;-76
2023/10/13 00:37:53;;;;;;;32.08;30.42;;;;;;;8.55;100.00;101475.69;4957379;28;20086;-79
2023/10/13 00:44:03;;;;;;;33.13;31.40;;;;;;;8.68;100.00;101485.72;4973269;28;20089;-79
2023/10/13 00:50:18;;;;;;;30.77;29.05;;;;;;;8.15;100.00;101489.94;4973324;28;20077;-79
2023/10/13 00:56:18;;;;;;;31.38;29.58;;;;;;;8.58;100.00;101485.13;4972984;28;20097;-78
2023/10/13 01:08:11;;;;;;;38.75;36.75;;;;;;;7.92;100.00;101490.63;4972973;28;20422;-79
2023/10/13 01:14:02;;;;;;;31.35;29.40;;;;;;;7.82;100.00;101491.84;4976910;28;20046;-79
2023/10/13 01:17:18;;;;;;;33.80;31.55;;;;;;;7.71;100.00;101485.88;4976792;28;20062;-79
2023/10/13 01:26:30;;;;;;;34.42;32.13;;;;;;;7.77;100.00;101484.41;4976929;28;20486;-79
2023/10/13 01:32:20;;;;;;;31.38;29.48;;;;;;;7.99;100.00;101480.22;4976483;28;20046;-79
2023/10/13 01:38:09;;;;;;;34.35;32.45;;;;;;;7.90;100.00;101473.31;4976611;28;20062;-79
2023/10/13 01:41:30;;;;;;;30.35;28.55;;;;;;;7.87;100.00;101485.06;4976867;28;20461;-79
2023/10/13 01:43:58;;;;;;;35.55;33.75;;;;;;;7.90;100.00;101481.25;4976353;28;20055;-79
2023/10/13 01:50:12;;;;;;;32.15;30.25;;;;;;;7.78;100.00;101472.84;4976477;28;20041;-78
2023/10/13 01:56:05;;;;;;;35.70;33.90;;;;;;;7.75;100.00;101473.19;4976108;28;20026;-78
2023/10/13 02:05:17;;;;;;;34.13;32.53;;;;;;;7.80;100.00;101470.84;4956816;29;20034;-80
2023/10/13 02:08:01;;;;;;;37.28;35.67;;;;;;;8.18;100.00;101465.75;4956585;29;20142;-78
2023/10/13 02:13:57;;;;;;;42.58;40.67;;;;;;;7.67;100.00;101466.06;4956585;29;20474;-80
2023/10/13 02:16:46;;;;;;;53.72;51.42;;;;;;;8.16;100.00;101465.09;4956593;29;20483;-78
2023/10/13 02:22:38;;;;;;;41.78;39.45;;;;;;;8.15;100.00;101468.75;4967969;28;20427;-80
2023/10/13 02:31:54;;;;;;;52.35;49.95;;;;;;;7.97;100.00;101472.44;4975504;28;20089;-78
2023/10/13 02:34:51;;;;;;;43.17;41.17;;;;;;;8.04;100.00;101477.88;4975289;28;20129;-79
2023/10/13 02:37:44;;;;;;;46.75;44.35;;;;;;;7.80;100.00;101479.59;4975350;28;20061;-79
2023/10/13 02:47:14;;;;;;;36.25;34.45;;;;;;;7.75;100.00;101481.13;4974599;28;20070;-79
2023/10/13 02:53:05;;;;;;;39.42;37.42;;;;;;;7.60;100.00;101480.97;4974945;28;20088;-80
2023/10/13 02:59:55;;;;;;;39.65;37.35;;;;;;;7.36;100.00;101483.66;4975166;28;20458;-80
2023/10/13 03:06:00;;;;;;;42.38;40.28;;;;;;;7.01;100.00;101480.31;4975198;28;20038;-80
2023/10/13 03:12:04;;;;;;;34.78;32.88;;;;;;;6.67;100.00;101486.53;4975100;28;20125;-80
2023/10/13 03:15:17;;;;;;;36.55;34.58;;;;;;;6.80;100.00;101478.13;4974507;28;20050;-80
2023/10/13 03:21:07;;;;;;;33.00;31.40;;;;;;;6.93;100.00;101478.50;4974701;28;20118;-80
2023/10/13 03:26:56;;;;;;;35.33;32.72;;;;;;;7.17;100.00;101480.34;4974573;28;20033;-80
2023/10/13 03:33:06;;;;;;;34.13;31.52;;;;;;;7.00;100.00;101486.59;4974057;28;20473;-79
2023/10/13 03:35:39;;;;;;;44.50;41.30;;;;;;;7.23;100.00;101484.13;4972871;28;20043;-76
2023/10/13 03:42:19;;;;;;;44.33;40.72;;;;;;;7.36;100.00;101478.34;4974294;28;20042;-80
2023/10/13 03:49:01;;;;;;;36.80;33.90;;;;;;;7.09;100.00;101470.59;4973097;28;20038;-79
2023/10/13 03:51:31;;;;;;;39.13;36.13;;;;;;;6.69;100.00;101468.72;4968287;28;20443;-75
2023/10/13 03:54:07;;;;;;;42.95;40.33;;;;;;;6.85;100.00;101468.75;4619624;28;10000328;-75
2023/10/13 03:56:39;;;;;;;39.25;36.65;;;;;;;7.52;100.00;101470.41;4961976;28;20489;-76
2023/10/13 03:59:09;;;;;;;43.25;39.95;;;;;;;7.51;100.00;101477.50;4970075;28;20141;-76
2023/10/13 04:01:46;;;;;;;36.15;33.45;;;;;;;7.66;100.00;101482.94;4970549;28;20050;-75
2023/10/13 04:04:14;;;;;;;46.45;43.15;;;;;;;7.79;100.00;101483.25;4971130;28;20089;-76
2023/10/13 04:06:51;;;;;;;39.80;36.85;;;;;;;7.22;100.00;101483.28;4971602;28;20565;-76
2023/10/13 04:13:50;;;;;;;34.20;31.40;;;;;;;7.41;100.00;101482.13;4971388;28;20049;-76
2023/10/13 04:15:23;;;;;;;32.72;30.13;;;;;;;7.45;100.00;101488.75;4968215;28;20060;-76
2023/10/13 04:17:50;;;;;;;27.05;25.55;;;;;;;7.30;100.00;101491.22;4968785;28;20509;-76
2023/10/13 04:20:32;;;;;;;25.15;23.95;;;;;;;7.26;100.00;101489.06;4966860;28;20053;-76
2023/10/13 04:23:22;;;;;;;27.00;25.63;;;;;;;7.42;100.00;101486.44;4969487;28;20055;-76
2023/10/13 04:28:37;;;;;;;25.48;24.17;;;;;;;7.27;100.00;101493.38;4966780;28;20070;-75
2023/10/13 04:31:24;;;;;;;23.88;22.38;;;;;;;7.20;100.00;101508.22;4969925;28;20430;-76
2023/10/13 04:33:56;;;;;;;23.00;21.40;;;;;;;7.24;100.00;101501.66;4965854;28;20105;-76
2023/10/13 04:36:36;;;;;;;23.30;22.10;;;;;;;7.34;100.00;101500.47;4969360;28;20078;-76
2023/10/13 04:39:16;;;;;;;25.05;23.55;;;;;;;7.38;100.00;101508.88;4969787;28;20047;-76
2023/10/13 04:41:42;;;;;;;20.85;19.65;;;;;;;7.23;100.00;101506.09;4967634;28;20066;-76
2023/10/13 04:47:07;;;;;;;22.88;21.48;;;;;;;7.04;100.00;101503.75;4966126;28;20182;-76
2023/10/13 04:49:35;;;;;;;20.60;19.30;;;;;;;7.36;100.00;101510.06;4971136;28;20063;-76
2023/10/13 04:52:26;;;;;;;21.30;19.90;;;;;;;7.64;100.00;101510.53;4970849;28;20082;-75
2023/10/13 04:54:54;;;;;;;22.00;20.45;;;;;;;7.77;100.00;101516.13;4970093;28;20570;-76
2023/10/13 04:57:31;;;;;;;21.35;19.95;;;;;;;7.94;100.00;101525.69;4971046;28;20054;-76
2023/10/13 05:02:55;;;;;;;22.48;21.05;;;;;;;8.17;100.00;101525.81;4969882;28;20113;-76
2023/10/13 05:05:45;;;;;;;24.48;23.08;;;;;;;8.48;100.00;101540.94;4969643;28;20057;-76
2023/10/13 05:44:37;;;;;;;22.58;20.98;;;;;;;10.70;100.00;101543.34;4965615;28;20050;-77
2023/10/13 05:47:46;;;;;;;23.55;21.85;;;;;;;10.68;100.00;101546.22;4970174;28;20821;-76
2023/10/13 05:50:49;;;;;;;24.58;22.77;;;;;;;10.92;100.00;101549.53;4973669;28;20133;-76
2023/10/13 06:29:07;;;;;;;52.92;43.60;;;;;;;14.21;100.00;101554.06;4941034;28;20093;-77
2023/10/13 06:38:30;;;;;;;61.53;46.97;;;;;;;14.86;100.00;101562.91;4975263;28;20167;-77
2023/10/13 06:47:42;;;;;;;26.63;24.77;;;;;;;16.04;100.00;101548.03;4955951;29;20050;-78
2023/10/13 06:53:37;;;;;;;26.40;24.50;;;;;;;16.33;100.00;101554.50;4955827;29;20038;-79
2023/10/13 06:59:27;;;;;;;24.95;23.15;;;;;;;17.09;100.00;101550.44;4955622;29;20053;-79
2023/10/13 07:05:15;;;;;;;26.10;24.25;;;;;;;18.07;100.00;101550.94;4958256;28;20115;-76
2023/10/13 07:11:08;;;;;;;26.05;24.15;;;;;;;18.52;100.00;101542.22;4974307;28;20524;-76
2023/10/13 07:16:59;;;;;;;25.58;23.77;;;;;;;18.81;100.00;101556.50;4966593;28;20034;-76
2023/10/13 07:19:53;;;;;;;26.63;24.73;;;;;;;18.86;100.00;101559.31;4974362;28;20109;-77
2023/10/13 07:22:29;;;;;;;25.35;23.45;;;;;;;19.11;100.00;101569.72;4974421;28;20129;-78
2023/10/13 07:28:19;;;;;;;26.92;24.83;;;;;;;20.08;100.00;101568.56;4973323;28;20038;-78
2023/10/13 07:34:12;;;;;;;27.02;24.92;;;;;;;21.20;100.00;101552.88;4974065;28;20046;-78
2023/10/13 07:36:49;;;;;;;27.55;25.30;;;;;;;21.25;100.00;101561.03;4974208;28;20494;-78
2023/10/13 07:42:40;;;;;;;27.05;24.95;;;;;;;21.26;100.00;101556.44;4973776;28;20041;-77
2023/10/13 07:48:33;;;;;;;25.08;23.17;;;;;;;20.73;100.00;101566.19;4967709;28;20082;-76
2023/10/13 07:54:42;;;;;;;25.02;23.02;;;;;;;21.21;100.00;101565.31;4973765;28;20104;-76
2023/10/13 08:04:04;;;;;;;26.35;24.35;;;;;;;19.85;100.00;101564.22;4979014;28;20057;-76
2023/10/13 08:06:31;;;;;;;26.77;24.60;;;;;;;19.77;100.00;101564.63;4984264;28;20533;-77
2023/10/13 08:09:28;;;;;;;25.95;23.83;;;;;;;19.77;100.00;101563.81;4970889;28;20062;-77
2023/10/13 08:11:55;;;;;;;28.42;26.33;;;;;;;19.86;100.00;101557.75;4965283;28;20058;-76
2023/10/13 08:14:33;;;;;;;27.65;25.45;;;;;;;19.81;100.00;101559.56;4970272;28;20057;-77
2023/10/13 08:18:29;;;;;;;25.60;23.73;;;;;;;20.88;100.00;101577.16;4977776;27;20436;-75
2023/10/13 08:21:02;;;;;;;25.73;23.83;;;;;;;21.11;100.00;101564.41;5033227;28;20053;-76
2023/10/13 08:23:57;;;;;;;26.17;24.08;;;;;;;20.95;100.00;101576.94;5037300;28;20393;-75
2023/10/13 08:32:13;;;;;;;27.45;25.15;;;;;;;21.57;100.00;101567.50;5029328;28;20100;-76
2023/10/13 08:34:59;;;;;;;27.13;24.92;;;;;;;22.35;100.00;101560.44;5036406;28;20045;-76
2023/10/13 08:37:29;;;;;;;25.10;23.13;;;;;;;21.75;100.00;101566.28;5044053;28;20424;-76
2023/10/13 08:43:09;;;;;;;27.23;25.02;;;;;;;22.31;100.00;101563.94;5040272;28;20048;-75
2023/10/13 08:45:54;;;;;;;35.08;24.13;;;;;;;21.83;100.00;101573.94;5034148;28;20058;-76
2023/10/13 08:48:31;;;;;;;25.40;23.50;;;;;;;22.73;100.00;101566.53;5030683;28;20049;-76
2023/10/13 08:51:11;;;;;;;27.25;25.05;;;;;;;22.46;100.00;101565.91;5032646;28;20100;-76
2023/10/13 08:53:51;;;;;;;25.45;23.15;;;;;;;22.52;100.00;101570.25;5032585;28;20053;-76
2023/10/13 08:56:18;;;;;;;24.00;22.10;;;;;;;22.57;100.00;101564.84;5038397;28;20046;-76
2023/10/13 09:01:45;;;;;;;25.35;23.35;;;;;;;24.54;100.00;101550.66;5027589;28;20045;-76
2023/10/13 09:04:21;;;;;;;23.73;21.83;;;;;;;23.01;96.67;101556.31;5036647;28;20153;-75
2023/10/13 09:07:03;;;;;;;24.08;22.08;;;;;;;25.52;100.00;101548.88;5036144;28;20059;-76
2023/10/13 09:09:34;;;;;;;24.20;22.20;;;;;;;24.96;100.00;101543.88;5041341;28;20053;-76
2023/10/13 09:12:09;;;;;;;24.40;22.40;;;;;;;23.64;100.00;101553.34;5036165;28;20054;-76
2023/10/13 09:14:44;;;;;;;27.17;24.75;;;;;;;24.47;100.00;101542.00;5035126;28;20426;-77
2023/10/13 09:17:12;;;;;;;23.65;21.85;;;;;;;25.38;96.69;101547.13;5029207;28;20054;-76
2023/10/13 09:23:48;;;;;;;24.52;22.52;;;;;;;25.49;92.88;101554.09;5040818;28;20079;-77
2023/10/13 09:26:24;;;;;;;23.15;21.25;;;;;;;24.17;100.00;101543.72;5033231;28;20049;-77
2023/10/13 09:28:53;;;;;;;23.20;21.40;;;;;;;25.02;72.98;101533.78;5028039;28;20046;-76
2023/10/13 09:31:39;;;;;;;23.80;21.90;;;;;;;25.36;94.85;101540.06;5016215;28;20529;-75
2023/10/13 09:34:09;;;;;;;23.00;21.10;;;;;;;24.22;95.20;101540.19;5010451;28;20111;-76
2023/10/13 09:40:24;;;;;;;24.55;22.55;;;;;;;23.89;78.52;101539.75;5025147;28;20036;-75
2023/10/13 09:42:51;;;;;;;24.80;22.80;;;;;;;23.25;100.00;101541.16;5020232;28;20046;-76
2023/10/13 09:45:18;;;;;;;23.52;21.73;;;;;;;23.29;100.00;101544.94;5014210;28;20045;-76
2023/10/13 09:47:52;;;;;;;22.55;20.75;;;;;;;22.79;100.00;101543.00;5019074;28;20049;-76
2023/10/13 09:50:33;;;;;;;22.70;21.00;;;;;;;23.23;100.00;101537.09;5019280;28;20058;-76
2023/10/13 09:53:00;;;;;;;24.10;22.13;;;;;;;22.55;100.00;101539.94;5022756;28;20729;-77
2023/10/13 09:55:34;;;;;;;23.40;21.60;;;;;;;22.81;96.87;101544.34;5013930;28;20049;-76
2023/10/13 09:58:11;;;;;;;26.38;24.38;;;;;;;22.39;99.73;101548.03;5026020;28;20106;-76
2023/10/13 10:00:56;;;;;;;28.27;25.98;;;;;;;22.50;100.00;101542.63;5030048;28;20076;-78
2023/10/13 10:03:39;;;;;;;29.30;27.10;;;;;;;22.28;100.00;101540.94;5029213;28;20417;-76
2023/10/13 10:06:13;;;;;;;28.30;26.20;;;;;;;22.37;100.00;101541.25;5024502;28;20656;-76
2023/10/13 10:08:51;;;;;;;30.15;27.85;;;;;;;22.31;100.00;101537.69;5018821;28;20062;-76
2023/10/13 10:11:45;;;;;;;28.98;26.50;;;;;;;21.86;100.00;101540.94;5014600;28;20049;-76
2023/10/13 10:14:29;;;;;;;29.70;27.23;;;;;;;22.36;100.00;101545.00;5022038;28;20137;-77
2023/10/13 10:17:08;;;;;;;29.00;26.73;;;;;;;22.29;100.00;101537.13;5021115;28;20060;-75
2023/10/13 10:19:47;;;;;;;26.30;24.40;;;;;;;22.60;100.00;101535.38;5020721;28;20057;-75
2023/10/13 10:22:17;;;;;;;27.33;25.25;;;;;;;22.89;100.00;101536.78;5018070;28;20399;-75
2023/10/13 10:24:46;;;;;;;26.25;24.17;;;;;;;22.71;100.00;101541.59;5016340;28;20292;-77
2023/10/13 10:27:34;;;;;;;25.40;23.40;;;;;;;22.40;100.00;101546.13;5017550;28;20107;-76
2023/10/13 10:30:03;;;;;;;28.77;26.58;;;;;;;22.07;100.00;101540.00;5028264;28;20136;-76
2023/10/13 10:32:41;;;;;;;27.10;25.00;;;;;;;22.74;100.00;101540.25;5024828;28;20129;-77
2023/10/13 10:35:23;;;;;;;28.60;26.30;;;;;;;21.90;100.00;101533.94;5013017;28;20072;-77
2023/10/13 10:38:15;;;;;;;28.40;26.10;;;;;;;23.37;100.00;101540.09;5024247;28;20517;-75
2023/10/13 10:40:59;;;;;;;29.52;27.23;;;;;;;24.35;100.00;101530.63;5020600;28;20567;-76
2023/10/13 10:43:43;;;;;;;27.60;25.50;;;;;;;23.95;100.00;101538.66;5025494;28;20468;-75
2023/10/13 10:49:43;;;;;;;25.73;23.83;;;;;;;23.83;82.88;101530.00;5030186;28;20036;-77
2023/10/13 10:52:18;;;;;;;26.25;24.25;;;;;;;24.89;96.37;101524.38;5023713;28;20053;-76
2023/10/13 10:55:11;;;;;;;26.70;24.60;;;;;;;24.84;96.29;101527.94;5027311;28;20085;-76
2023/10/13 10:57:42;;;;;;;28.30;26.10;;;;;;;24.62;98.40;101522.09;5019835;28;20120;-76
2023/10/13 11:00:25;;;;;;;26.95;24.95;;;;;;;24.18;100.00;101514.72;5032496;28;20139;-77
2023/10/13 11:02:58;;;;;;;29.67;27.58;;;;;;;25.88;85.62;101512.38;5022944;28;20100;-77
2023/10/13 11:05:32;;;;;;;28.50;26.40;;;;;;;26.40;78.56;101506.00;5018646;28;20451;-75
2023/10/13 11:07:59;;;;;;;28.83;26.92;;;;;;;25.57;74.83;101510.78;5028090;28;20497;-75
2023/10/13 11:10:47;;;;;;;32.00;29.70;;;;;;;26.33;82.24;101504.75;5029875;28;20052;-76
2023/10/13 11:13:21;;;;;;;33.40;31.20;;;;;;;24.65;77.58;101511.47;5017718;28;20473;-76
2023/10/13 11:15:50;;;;;;;32.10;29.95;;;;;;;25.87;88.03;101510.75;5024284;28;20054;-76
2023/10/13 11:18:20;;;;;;;32.03;29.83;;;;;;;24.57;89.12;101511.25;5030964;28;20513;-76
2023/10/13 11:20:57;;;;;;;27.10;25.20;;;;;;;25.73;84.67;101508.69;5026532;28;20092;-75
2023/10/13 11:23:25;;;;;;;27.83;25.83;;;;;;;25.59;66.23;101503.13;5026210;28;20509;-75
2023/10/13 11:25:59;;;;;;;28.17;26.17;;;;;;;26.79;68.31;101504.09;5029093;28;20049;-76
2023/10/13 11:28:28;;;;;;;26.95;24.95;;;;;;;26.75;78.44;101506.63;5027118;28;20111;-76
2023/10/13 11:31:00;;;;;;;27.95;25.85;;;;;;;25.49;74.49;101513.31;5045682;28;20471;-76
2023/10/13 11:33:28;;;;;;;28.58;26.58;;;;;;;24.87;91.77;101513.78;5043061;28;20080;-76
2023/10/13 11:35:56;;;;;;;38.17;35.67;;;;;;;24.04;99.70;101502.81;5027231;28;20057;-76
2023/10/13 11:38:42;;;;;;;34.58;32.28;;;;;;;23.82;100.00;101506.69;5040227;28;20075;-75
2023/10/13 11:41:57;;;;;;;33.60;31.40;;;;;;;23.46;98.67;101506.72;5020784;28;20057;-76
2023/10/13 11:44:25;;;;;;;26.63;24.73;;;;;;;23.82;100.00;101505.88;5022026;28;20496;-76
2023/10/13 11:46:55;;;;;;;31.48;29.27;;;;;;;23.70;100.00;101492.63;5027336;28;20045;-76
2023/10/13 11:49:34;;;;;;;29.02;27.02;;;;;;;24.01;100.00;101487.91;5024177;28;20080;-75
2023/10/13 11:54:52;;;;;;;28.17;26.17;;;;;;;24.36;100.00;101495.06;5014631;28;20099;-75
2023/10/13 11:57:29;;;;;;;27.75;25.73;;;;;;;23.96;100.00;101483.31;5029422;28;20520;-75
2023/10/13 12:00:24;;;;;;;27.83;25.73;;;;;;;23.68;100.00;101482.00;5031045;28;20441;-76
2023/10/13 12:05:49;;;;;;;27.80;25.70;;;;;;;23.91;100.00;101474.38;5024296;28;20060;-76
2023/10/13 12:08:22;;;;;;;28.33;26.23;;;;;;;23.51;100.00;101478.78;5016393;28;20492;-75
2023/10/13 12:10:59;;;;;;;28.52;26.42;;;;;;;23.72;100.00;101474.16;5025596;28;20552;-77
2023/10/13 12:13:28;;;;;;;29.73;27.40;;;;;;;23.74;100.00;101472.78;5022526;28;20518;-77
2023/10/13 12:16:08;;;;;;;28.15;26.25;;;;;;;23.99;100.00;101469.19;5025387;28;20045;-78
2023/10/13 12:18:45;;;;;;;26.25;24.38;;;;;;;24.06;100.00;101463.47;5030562;28;20041;-76
2023/10/13 12:21:19;;;;;;;27.95;25.85;;;;;;;23.62;100.00;101466.03;5027374;28;20049;-77
2023/10/13 12:23:46;;;;;;;26.77;24.88;;;;;;;23.55;100.00;101469.03;5030949;28;20053;-78
2023/10/13 12:26:20;;;;;;;27.00;25.02;;;;;;;23.64;100.00;101470.09;5027654;28;20073;-77
2023/10/13 12:28:51;;;;;;;28.80;26.67;;;;;;;23.65;100.00;101470.91;5025604;28;20050;-77
2023/10/13 12:31:26;;;;;;;25.60;23.83;;;;;;;23.50;100.00;101471.75;5012145;28;20119;-77
2023/10/13 12:33:57;;;;;;;26.98;24.98;;;;;;;23.48;100.00;101468.50;5028591;28;20055;-77
2023/10/13 12:37:05;;;;;;;25.50;23.75;;;;;;;23.46;100.00;101460.66;5022899;28;20049;-77
2023/10/13 12:50:44;;;;;;;26.48;24.77;;;;;;;23.22;100.00;101495.63;5016837;28;20053;-75
2023/10/13 12:53:13;;;;;;;25.48;23.77;;;;;;;23.47;100.00;101488.56;5022948;28;20061;-76
2023/10/13 12:55:41;;;;;;;25.75;24.00;;;;;;;23.23;100.00;101488.31;5024133;28;20536;-76
2023/10/13 12:58:08;;;;;;;26.50;24.55;;;;;;;23.51;100.00;101476.06;5035732;28;20055;-77
2023/10/13 13:00:48;;;;;;;24.73;23.13;;;;;;;23.11;100.00;101472.34;5037366;28;20121;-76
2023/10/13 13:03:28;;;;;;;25.00;23.30;;;;;;;23.10;100.00;101476.13;5026710;28;20051;-76
2023/10/13 13:05:58;;;;;;;25.38;23.58;;;;;;;23.64;100.00;101469.28;5038745;28;20691;-77
2023/10/13 13:08:35;;;;;;;26.58;24.67;;;;;;;24.10;100.00;101472.66;5029572;28;20133;-77
2023/10/13 13:11:13;;;;;;;25.58;23.98;;;;;;;24.40;100.00;101465.47;5030091;28;20054;-77
2023/10/13 13:13:40;;;;;;;28.23;26.63;;;;;;;24.57;100.00;101465.94;5036404;28;20075;-78
2023/10/13 13:16:24;;;;;;;27.38;25.77;;;;;;;24.81;99.90;101476.91;5028326;28;20497;-78
2023/10/13 13:19:03;;;;;;;25.02;23.52;;;;;;;24.41;100.00;101469.78;5029431;28;20049;-77
2023/10/13 13:21:37;;;;;;;25.58;24.08;;;;;;;23.70;100.00;101468.22;5033688;28;20056;-77
2023/10/13 13:24:10;;;;;;;25.08;23.52;;;;;;;24.16;100.00;101470.75;5038517;28;20053;-77
2023/10/13 13:26:40;;;;;;;28.33;26.30;;;;;;;24.34;100.00;101475.53;5025156;28;20042;-78
2023/10/13 13:29:10;;;;;;;29.35;27.55;;;;;;;24.20;100.00;101469.09;5029478;28;20045;-77
2023/10/13 13:32:00;;;;;;;25.30;23.88;;;;;;;23.82;100.00;101476.03;5019096;28;20140;-75
2023/10/13 13:34:27;;;;;;;27.60;25.90;;;;;;;23.81;100.00;101474.41;5013782;28;20367;-75
2023/10/13 13:36:55;;;;;;;25.63;24.13;;;;;;;23.82;100.00;101460.56;5033336;28;20084;-75
2023/10/13 13:39:30;;;;;;;25.88;24.27;;;;;;;23.89;100.00;101460.28;5028331;28;20053;-76
2023/10/13 13:41:57;;;;;;;29.33;27.73;;;;;;;23.63;100.00;101465.75;5031376;28;20322;-76
2023/10/13 13:44:29;;;;;;;48.35;25.95;;;;;;;23.57;100.00;101464.16;5037941;28;20045;-75
2023/10/13 13:47:11;;;;;;;26.42;24.92;;;;;;;23.61;100.00;101461.69;5011000;28;20046;-76
2023/10/13 13:49:51;;;;;;;24.83;23.38;;;;;;;23.70;100.00;101460.06;5029531;28;20053;-76
2023/10/13 13:52:21;;;;;;;26.80;25.00;;;;;;;23.84;100.00;101463.00;5026917;28;20065;-76
2023/10/13 13:55:02;;;;;;;24.35;22.75;;;;;;;23.30;100.00;101465.28;5034610;28;20049;-76
2023/10/13 13:57:50;;;;;;;25.10;23.50;;;;;;;23.48;100.00;101463.06;5025425;28;20054;-77
2023/10/13 14:00:23;;;;;;;24.45;22.75;;;;;;;23.37;100.00;101459.56;5033233;28;20136;-78
2023/10/13 14:02:52;;;;;;;27.00;25.50;;;;;;;23.26;100.00;101463.38;5030702;28;20057;-75
2023/10/13 14:05:32;;;;;;;26.17;24.67;;;;;;;23.26;100.00;101463.38;5035102;28;20049;-75
2023/10/13 14:08:00;;;;;;;25.35;23.65;;;;;;;23.17;100.00;101462.31;5031519;28;20432;-77
2023/10/13 14:11:13;;;;;;;24.40;22.90;;;;;;;23.25;100.00;101464.47;5031041;28;20552;-75
2023/10/13 14:13:22;;;;;;;28.67;26.42;;;;;;;23.18;100.00;101462.06;5027802;28;20579;-76
2023/10/13 14:15:56;;;;;;;29.30;27.60;;;;;;;23.14;100.00;101460.94;5039954;28;20053;-75
2023/10/13 14:18:30;;;;;;;30.23;28.42;;;;;;;23.08;100.00;101470.16;5024707;28;20107;-76
2023/10/13 14:20:57;;;;;;;27.73;25.92;;;;;;;23.03;100.00;101472.91;5019409;28;20077;-76
2023/10/13 14:23:34;;;;;;;53.38;26.50;;;;;;;22.98;100.00;101465.56;5024372;28;20140;-75
2023/10/13 14:26:01;;;;;;;31.13;29.33;;;;;;;22.92;100.00;101463.91;5030387;28;20505;-76
2023/10/13 14:28:34;;;;;;;29.33;27.50;;;;;;;22.83;100.00;101471.75;5030768;28;20060;-76
2023/10/13 14:31:09;;;;;;;25.65;23.92;;;;;;;22.72;100.00;101467.41;5031260;28;20061;-76
2023/10/13 14:33:54;;;;;;;26.45;24.75;;;;;;;22.46;100.00;101468.47;5032911;28;20050;-76
2023/10/13 14:36:21;;;;;;;26.13;24.42;;;;;;;22.59;100.00;101463.34;5023521;28;20049;-76
2023/10/13 14:38:50;;;;;;;29.48;27.38;;;;;;;22.54;100.00;101466.06;5028342;28;20062;-76
2023/10/13 14:41:18;;;;;;;27.75;25.42;;;;;;;22.13;100.00;101465.09;5022799;28;20045;-76
2023/10/13 14:43:47;;;;;;;30.38;27.50;;;;;;;21.73;100.00;101466.53;5031427;28;20507;-77
2023/10/13 14:46:15;;;;;;;26.88;24.25;;;;;;;21.47;100.00;101474.47;5023056;28;20073;-77
2023/10/13 14:49:05;;;;;;;24.88;23.08;;;;;;;21.52;100.00;101476.41;5030451;28;20480;-77
2023/10/13 14:51:59;;;;;;;26.70;24.90;;;;;;;21.28;100.00;101473.25;5026064;28;20046;-77
2023/10/13 14:54:33;;;;;;;24.38;22.67;;;;;;;21.13;100.00;101465.84;5021056;28;20413;-75
2023/10/13 14:57:02;;;;;;;23.10;21.40;;;;;;;21.15;100.00;101468.25;5038854;28;20072;-78
2023/10/13 14:59:32;;;;;;;23.45;21.75;;;;;;;21.17;100.00;101466.94;5024810;28;20045;-77
2023/10/13 15:02:02;;;;;;;27.45;25.35;;;;;;;21.02;100.00;101473.03;5029344;28;20548;-77
2023/10/13 15:04:32;;;;;;;30.48;27.65;;;;;;;20.79;100.00;101466.09;5029210;28;20053;-78
2023/10/13 15:07:01;;;;;;;27.10;25.40;;;;;;;20.66;100.00;101469.19;5025881;28;20076;-78
2023/10/13 15:09:30;;;;;;;23.90;22.20;;;;;;;20.38;100.00;101470.22;5039124;28;20049;-77
2023/10/13 15:11:57;;;;;;;25.67;23.92;;;;;;;20.21;100.00;101477.56;5036263;28;20050;-77
2023/10/13 15:14:24;;;;;;;25.40;23.70;;;;;;;20.17;100.00;101479.16;5027329;28;20044;-78
2023/10/13 15:16:55;;;;;;;26.67;24.58;;;;;;;20.12;100.00;101483.44;5021457;28;20072;-76
2023/10/13 15:19:23;;;;;;;24.92;23.13;;;;;;;19.85;100.00;101487.94;5019368;28;20061;-75
2023/10/13 15:21:52;;;;;;;23.35;21.75;;;;;;;19.63;100.00;101485.97;5027318;28;20052;-76
2023/10/13 15:24:21;;;;;;;25.10;23.40;;;;;;;19.57;100.00;101486.94;5038340;28;20102;-76
2023/10/13 15:26:56;;;;;;;24.10;22.50;;;;;;;19.35;100.00;101483.41;5030344;28;20045;-76
2023/10/13 15:29:35;;;;;;;27.10;24.95;;;;;;;19.19;100.00;101487.72;5031804;28;20045;-76
2023/10/13 15:35:04;;;;;;;24.60;23.00;;;;;;;18.38;100.00;101493.25;4998856;28;20064;-77
2023/10/13 15:37:31;;;;;;;24.58;22.85;;;;;;;18.34;100.00;101496.66;5023152;28;20046;-77
2023/10/13 15:39:59;;;;;;;25.02;23.52;;;;;;;18.09;100.00;101500.44;5015754;28;20054;-76
2023/10/13 15:42:29;;;;;;;26.63;24.85;;;;;;;18.17;100.00;101496.56;5022120;28;20513;-77
2023/10/13 15:44:59;;;;;;;28.58;26.70;;;;;;;18.05;100.00;101497.41;5039135;28;20433;-78
2023/10/13 15:47:34;;;;;;;31.92;30.23;;;;;;;18.06;100.00;101491.00;5023689;28;20140;-77
2023/10/13 15:50:03;;;;;;;30.95;29.05;;;;;;;17.89;100.00;101494.66;5022289;28;20046;-76
2023/10/13 15:52:31;;;;;;;30.70;29.00;;;;;;;17.71;100.00;101491.00;5031815;28;20049;-77
2023/10/13 15:54:58;;;;;;;30.15;28.45;;;;;;;17.71;100.00;101495.56;5020455;28;20071;-76
2023/10/13 15:57:25;;;;;;;33.85;31.85;;;;;;;17.50;100.00;101492.41;5015730;28;20140;-77
2023/10/13 16:00:22;;;;;;;42.28;40.08;;;;;;;17.26;100.00;101491.56;5029963;28;20048;-77
2023/10/13 16:02:54;;;;;;;38.40;36.20;;;;;;;17.21;100.00;101494.13;5028631;28;20049;-78
2023/10/13 16:05:24;;;;;;;42.42;39.67;;;;;;;17.46;100.00;101491.25;5031020;28;20099;-77
2023/10/13 16:07:59;;;;;;;52.90;50.40;;;;;;;17.24;100.00;101499.03;5024324;28;20104;-76
2023/10/13 16:10:26;;;;;;;56.85;53.75;;;;;;;17.03;100.00;101496.88;5022745;28;20119;-77
2023/10/13 16:12:53;;;;;;;49.50;46.92;;;;;;;17.01;100.00;101497.13;5029189;28;20046;-77
2023/10/13 16:15:22;;;;;;;46.78;44.58;;;;;;;16.66;100.00;101496.97;5025699;28;20072;-77
2023/10/13 16:17:52;;;;;;;50.33;47.78;;;;;;;16.84;100.00;101506.88;5025780;28;20441;-77
2023/10/13 16:20:24;;;;;;;34.75;32.95;;;;;;;16.63;100.00;101500.09;5026458;28;20050;-77
2023/10/13 16:22:53;;;;;;;41.60;39.50;;;;;;;16.42;100.00;101501.41;5029510;28;20081;-75
2023/10/13 16:25:21;;;;;;;39.80;37.70;;;;;;;16.50;100.00;101509.16;5026250;28;20081;-76
2023/10/13 16:27:49;;;;;;;51.08;48.35;;;;;;;15.91;100.00;101507.97;5031145;28;20312;-76
2023/10/13 16:30:16;;;;;;;55.65;49.95;;;;;;;16.08;100.00;101508.22;5034771;28;20056;-76
2023/10/13 16:32:45;;;;;;;49.03;46.60;;;;;;;16.37;100.00;101501.25;5023725;28;20049;-76